Time;durP1;ratioP1;P1;durP2;ratioP2;P2;SDS_P1;SDS_P2;PMS_P1;PMS_P2;Temp;Humidity;BMP_temperature;BMP_pressure;BME280_temperature;BME280_humidity;BME280_pressure;Samples;Min_cycle;Max_cycle;Signal;HPM_P1;HPM_P2
2022/01/18 00:00:25;;;;;;;36.15;5.65;;;;;;;3.39;89.23;103925.91;4991217;28;20474;-55
2022/01/18 00:02:50;;;;;;;40.00;7.15;;;;;;;3.40;89.35;103923.38;5019429;28;20049;-54
2022/01/18 00:05:17;;;;;;;30.65;5.53;;;;;;;3.45;89.68;103922.69;4993757;28;20101;-56
2022/01/18 00:07:44;;;;;;;26.02;5.10;;;;;;;3.44;89.98;103927.03;4987389;28;20303;-55
2022/01/18 00:10:11;;;;;;;17.60;4.32;;;;;;;3.43;89.75;103932.16;4987439;28;20026;-56
2022/01/18 00:15:28;;;;;;;10.23;3.20;;;;;;;3.41;89.81;103942.53;4996048;28;20052;-55
2022/01/18 00:17:54;;;;;;;3.85;2.67;;;;;;;3.37;89.62;103949.28;4987236;28;20030;-55
2022/01/18 00:20:30;;;;;;;8.32;2.50;;;;;;;3.28;89.64;103946.25;5004727;28;20181;-55
2022/01/18 00:22:55;;;;;;;3.10;2.25;;;;;;;3.26;89.58;103948.81;5006014;28;20030;-57
2022/01/18 00:25:21;;;;;;;16.83;3.10;;;;;;;3.24;89.45;103952.16;4995011;28;20033;-54
2022/01/18 00:27:46;;;;;;;7.20;2.58;;;;;;;3.22;89.50;103949.47;5000355;28;20033;-55
2022/01/18 00:30:40;;;;;;;4.70;2.00;;;;;;;3.19;89.37;103949.31;4990100;28;20015;-59
2022/01/18 00:35:33;;;;;;;14.07;2.97;;;;;;;3.00;89.29;103948.47;4990102;28;20038;-55
2022/01/18 00:37:59;;;;;;;7.97;2.10;;;;;;;2.92;89.41;103957.59;5006835;28;20022;-53
2022/01/18 00:40:25;;;;;;;9.82;3.03;;;;;;;2.82;89.33;103950.16;5005442;28;20095;-54
2022/01/18 00:42:50;;;;;;;19.75;2.70;;;;;;;2.77;89.43;103961.25;5006663;28;20041;-56
2022/01/18 00:45:16;;;;;;;11.45;2.30;;;;;;;2.64;89.40;103958.84;5006932;28;20033;-56
2022/01/18 00:47:41;;;;;;;4.28;1.65;;;;;;;2.60;89.48;103959.53;5006861;28;20488;-57
2022/01/18 00:50:08;;;;;;;12.35;2.22;;;;;;;2.59;89.60;103960.34;5005425;28;20679;-55
2022/01/18 00:52:38;;;;;;;13.60;2.13;;;;;;;2.52;89.69;103964.34;5005854;28;20030;-55
2022/01/18 00:55:04;;;;;;;8.20;2.30;;;;;;;2.42;89.37;103964.69;5001079;28;20042;-54
2022/01/18 00:57:29;;;;;;;6.18;1.75;;;;;;;2.36;89.47;103954.88;4995430;28;20033;-54
2022/01/18 00:59:55;;;;;;;4.68;1.70;;;;;;;2.31;89.34;103959.81;4985448;28;20030;-53
2022/01/18 01:02:20;;;;;;;9.20;1.77;;;;;;;2.28;89.49;103949.25;4988143;28;20489;-55
2022/01/18 01:04:48;;;;;;;5.32;2.15;;;;;;;2.30;89.82;103949.34;4995652;28;20026;-55
2022/01/18 01:07:23;;;;;;;16.30;2.63;;;;;;;2.30;90.09;103944.13;5007923;28;20037;-55
2022/01/18 01:09:50;;;;;;;4.53;1.95;;;;;;;2.26;90.08;103941.38;4990524;28;20051;-57
2022/01/18 01:12:18;;;;;;;8.68;1.98;;;;;;;2.27;89.79;103939.69;4993950;28;20568;-54
2022/01/18 01:14:45;;;;;;;9.32;2.33;;;;;;;2.24;89.90;103949.94;5009853;28;20026;-55
2022/01/18 01:17:32;;;;;;;8.48;1.83;;;;;;;2.24;89.98;103947.31;4989792;28;20034;-56
2022/01/18 01:36:08;;;;;;;7.03;1.45;;;;;;;2.25;90.07;103950.00;4988340;28;20045;-55
2022/01/18 01:44:06;;;;;;;11.88;2.40;;;;;;;2.39;90.52;103936.81;4989780;28;20042;-55
2022/01/18 01:46:33;;;;;;;7.28;2.53;;;;;;;2.45;90.73;103942.31;4989953;28;20026;-55
2022/01/18 01:49:00;;;;;;;16.20;3.05;;;;;;;2.43;90.46;103946.53;4989963;28;20101;-56
2022/01/18 01:51:30;;;;;;;6.32;2.30;;;;;;;2.50;90.38;103945.16;4989548;28;20034;-56
2022/01/18 01:54:02;;;;;;;8.10;2.42;;;;;;;2.56;90.59;103949.78;5026975;28;20033;-55
2022/01/18 01:56:28;;;;;;;3.58;1.63;;;;;;;2.51;90.86;103950.44;5028321;28;20022;-55
2022/01/18 01:58:54;;;;;;;3.63;1.80;;;;;;;2.52;90.42;103956.53;5028863;28;20075;-57
2022/01/18 02:01:20;;;;;;;11.38;2.30;;;;;;;2.58;90.47;103958.53;5018614;28;20030;-54
2022/01/18 02:03:46;;;;;;;19.50;3.22;;;;;;;2.60;90.45;103957.81;5009018;28;20040;-54
2022/01/18 02:06:12;;;;;;;6.75;1.90;;;;;;;2.57;90.19;103954.16;5019766;22;20042;-54
2022/01/18 02:08:37;;;;;;;17.08;2.80;;;;;;;2.52;89.91;103952.22;5013670;28;20030;-51
2022/01/18 02:11:03;;;;;;;43.03;3.72;;;;;;;2.47;90.05;103953.69;5008284;28;20033;-55
2022/01/18 02:13:28;;;;;;;4.53;1.77;;;;;;;2.47;89.95;103951.09;5007633;28;20033;-55
2022/01/18 02:21:46;;;;;;;8.65;2.28;;;;;;;2.47;89.82;103942.41;5026222;28;20044;-55
2022/01/18 02:24:05;;;;;;;10.60;2.08;;;;;;;2.42;89.88;103942.16;5021881;28;20765;-50
2022/01/18 02:26:30;;;;;;;4.22;1.60;;;;;;;2.39;89.60;103949.81;5027230;28;20045;-54
2022/01/18 02:29:00;;;;;;;5.63;1.58;;;;;;;2.38;89.64;103948.03;5027240;28;20027;-53
2022/01/18 02:31:25;;;;;;;5.13;1.80;;;;;;;2.42;89.85;103943.88;5027531;28;20029;-53
2022/01/18 02:33:50;;;;;;;11.90;2.45;;;;;;;2.42;89.67;103941.25;5009299;28;20084;-54
2022/01/18 02:36:16;;;;;;;17.45;2.70;;;;;;;2.43;89.91;103938.75;5026793;28;20029;-54
2022/01/18 02:38:41;;;;;;;9.05;2.13;;;;;;;2.42;89.79;103936.97;5027587;28;20018;-54
2022/01/18 02:41:07;;;;;;;5.63;1.77;;;;;;;2.44;89.99;103939.63;5026699;28;20552;-55
2022/01/18 02:43:50;;;;;;;11.68;2.15;;;;;;;2.49;90.04;103938.16;5026060;28;20033;-55
2022/01/18 02:46:15;;;;;;;4.78;1.70;;;;;;;2.46;90.02;103936.28;5028049;28;20018;-55
2022/01/18 02:48:40;;;;;;;5.68;2.15;;;;;;;2.46;89.97;103933.69;5027297;28;20028;-59
2022/01/18 02:51:06;;;;;;;3.78;1.48;;;;;;;2.42;89.97;103936.97;5026454;28;20082;-51
2022/01/18 02:53:31;;;;;;;9.05;2.03;;;;;;;2.44;90.27;103944.84;5027421;28;20380;-54
2022/01/18 02:55:58;;;;;;;3.65;2.00;;;;;;;2.48;90.34;103936.38;5026421;28;20103;-56
2022/01/18 02:58:31;;;;;;;2.22;1.45;;;;;;;2.51;90.09;103939.13;5025954;28;20605;-56
2022/01/18 03:03:37;;;;;;;3.42;2.05;;;;;;;2.43;89.91;103945.63;5046329;28;20063;-53
2022/01/18 03:06:03;;;;;;;3.05;1.60;;;;;;;2.40;89.93;103947.28;5045297;28;20518;-58
2022/01/18 03:08:29;;;;;;;3.58;1.58;;;;;;;2.33;90.26;103939.09;5046421;28;20029;-56
2022/01/18 03:10:55;;;;;;;4.63;2.03;;;;;;;2.25;90.25;103939.59;5046766;28;20040;-54
2022/01/18 03:13:21;;;;;;;5.07;2.25;;;;;;;2.25;90.37;103942.19;5028808;28;20086;-53
2022/01/18 03:15:46;;;;;;;1.95;1.80;;;;;;;2.31;90.46;103940.72;5047693;28;20085;-56
2022/01/18 03:18:12;;;;;;;2.13;1.63;;;;;;;2.34;90.43;103938.25;5031473;28;20416;-56
2022/01/18 03:20:38;;;;;;;4.68;2.03;;;;;;;2.33;90.29;103939.09;5025618;28;20387;-56
2022/01/18 03:23:08;;;;;;;7.15;2.20;;;;;;;2.30;90.30;103936.31;5025641;28;20033;-55
2022/01/18 03:28:05;;;;;;;13.50;2.97;;;;;;;2.31;90.22;103939.00;5024907;28;20116;-56
2022/01/18 03:30:48;;;;;;;6.72;2.30;;;;;;;2.33;90.25;103939.09;5025293;28;20428;-55
2022/01/18 03:33:18;;;;;;;3.17;1.70;;;;;;;2.37;90.14;103946.22;5026563;28;20025;-54
2022/01/18 03:35:44;;;;;;;4.43;1.98;;;;;;;2.38;90.36;103940.22;5026355;28;20112;-55
2022/01/18 03:38:11;;;;;;;3.72;2.00;;;;;;;2.35;90.20;103943.53;5026610;28;20467;-54
2022/01/18 03:40:36;;;;;;;3.58;2.47;;;;;;;2.38;90.16;103945.44;5025634;28;20033;-51
2022/01/18 03:43:02;;;;;;;9.48;2.55;;;;;;;2.36;90.14;103947.06;5025454;28;20068;-59
2022/01/18 03:45:31;;;;;;;5.70;2.10;;;;;;;2.34;89.98;103948.69;5025238;28;20022;-55
2022/01/18 03:48:02;;;;;;;1.77;1.48;;;;;;;2.30;90.22;103938.94;5025663;28;20041;-57
2022/01/18 03:50:27;;;;;;;3.72;1.80;;;;;;;2.31;90.14;103945.91;5022660;28;20017;-55
2022/01/18 03:52:53;;;;;;;3.15;1.30;;;;;;;2.31;90.04;103945.91;5025412;28;20056;-53
2022/01/18 03:55:20;;;;;;;5.45;1.48;;;;;;;2.33;90.15;103941.69;5024592;28;20048;-54
2022/01/18 03:57:46;;;;;;;4.32;1.73;;;;;;;2.35;90.23;103948.75;5026170;28;20091;-54
2022/01/18 04:00:17;;;;;;;30.85;4.25;;;;;;;2.33;90.30;103952.09;5026156;28;20487;-53
2022/01/18 04:02:43;;;;;;;12.02;3.22;;;;;;;2.14;90.02;103953.78;5025982;28;20036;-54
2022/01/18 04:05:09;;;;;;;6.80;2.60;;;;;;;2.04;90.11;103959.31;5025244;28;20025;-54
2022/01/18 04:07:34;;;;;;;6.22;2.95;;;;;;;1.87;90.07;103957.59;5025124;28;20115;-54
2022/01/18 04:09:59;;;;;;;5.20;2.20;;;;;;;1.84;89.91;103961.75;5024571;28;20033;-54
2022/01/18 04:12:25;;;;;;;11.93;2.22;;;;;;;1.87;89.94;103964.50;5025181;28;20490;-54
2022/01/18 04:14:50;;;;;;;11.57;2.30;;;;;;;1.85;90.04;103973.94;5023770;28;20021;-55
2022/01/18 04:28:18;;;;;;;4.43;2.20;;;;;;;1.82;90.46;103985.06;5026107;28;20139;-53
2022/01/18 04:30:43;;;;;;;4.13;2.00;;;;;;;1.88;90.33;103979.28;5025133;28;20029;-56
2022/01/18 04:33:08;;;;;;;5.50;1.92;;;;;;;1.88;90.44;103988.00;5024858;28;20080;-54
2022/01/18 04:35:34;;;;;;;13.98;3.55;;;;;;;1.93;90.68;103971.75;5024366;28;20037;-57
2022/01/18 04:37:59;;;;;;;6.97;2.55;;;;;;;1.98;90.72;103981.56;5027027;28;20113;-54
2022/01/18 04:40:29;;;;;;;5.07;1.77;;;;;;;2.06;90.63;103981.97;5029196;28;20022;-55
2022/01/18 04:48:28;;;;;;;6.53;2.67;;;;;;;2.18;90.66;103984.34;5011179;28;20061;-56
2022/01/18 04:51:15;;;;;;;7.63;2.28;;;;;;;2.13;90.70;103977.97;5012114;28;20029;-55
2022/01/18 04:53:44;;;;;;;3.22;1.77;;;;;;;2.13;90.49;103975.38;5026388;28;20036;-53
2022/01/18 04:56:15;;;;;;;10.13;2.20;;;;;;;2.10;90.36;103975.22;5028449;28;20033;-55
2022/01/18 04:58:41;;;;;;;7.82;2.10;;;;;;;2.10;90.45;103970.00;5028199;28;20013;-52
2022/01/18 05:01:08;;;;;;;2.83;1.80;;;;;;;2.00;90.34;103973.84;5028257;28;20056;-53
2022/01/18 05:03:33;;;;;;;6.30;2.50;;;;;;;2.00;90.19;103982.56;5029596;28;20037;-55
2022/01/18 05:06:06;;;;;;;3.00;1.80;;;;;;;1.98;89.91;103981.56;5026442;28;20028;-57
2022/01/18 05:08:31;;;;;;;5.53;2.00;;;;;;;2.02;90.00;103983.50;5004717;28;20618;-55
2022/01/18 05:10:58;;;;;;;14.93;3.28;;;;;;;1.88;89.94;103985.41;5024961;28;20033;-55
2022/01/18 05:16:55;;;;;;;10.30;4.72;;;;;;;1.70;90.26;103989.59;5012548;28;20056;-57
2022/01/18 05:24:27;;;;;;;10.95;3.83;;;;;;;1.69;90.11;103975.72;5012453;28;20047;-56
2022/01/18 05:26:54;;;;;;;12.02;4.78;;;;;;;1.60;90.00;103972.63;5028974;28;20028;-56
2022/01/18 05:29:20;;;;;;;8.23;3.75;;;;;;;1.56;89.99;103968.06;5029878;28;20052;-56
2022/01/18 05:31:46;;;;;;;6.88;2.50;;;;;;;1.58;90.21;103971.63;5029015;28;20106;-54
2022/01/18 05:34:12;;;;;;;5.18;3.08;;;;;;;1.56;90.06;103976.75;5026735;28;20120;-54
2022/01/18 05:36:38;;;;;;;14.30;3.70;;;;;;;1.49;89.99;103975.53;5028171;28;20462;-56
2022/01/18 05:39:04;;;;;;;18.38;4.10;;;;;;;1.42;89.83;103978.59;5027858;28;20029;-51
2022/01/18 05:41:30;;;;;;;20.38;4.97;;;;;;;1.34;89.86;103980.78;5025862;28;20076;-56
2022/01/18 05:43:55;;;;;;;10.27;4.05;;;;;;;1.25;89.90;103969.84;5029208;28;20021;-52
2022/01/18 05:46:20;;;;;;;4.55;3.00;;;;;;;1.18;89.92;103978.13;5028020;28;20438;-57
2022/01/18 05:48:46;;;;;;;7.85;3.38;;;;;;;1.19;89.96;103979.91;5026922;28;20025;-55
2022/01/18 05:51:12;;;;;;;19.55;4.93;;;;;;;1.16;90.02;103983.22;5026579;28;20025;-54
2022/01/18 05:53:39;;;;;;;14.15;4.25;;;;;;;1.17;90.13;103981.53;5029084;28;20039;-54
2022/01/18 05:56:06;;;;;;;20.27;6.97;;;;;;;1.10;90.18;103978.59;5033029;28;20026;-53
2022/01/18 05:58:32;;;;;;;19.05;7.68;;;;;;;1.08;90.29;103976.72;5027993;28;20079;-54
2022/01/18 06:00:57;;;;;;;21.80;10.18;;;;;;;1.07;90.21;103977.50;5025473;28;20041;-53
2022/01/18 06:03:32;;;;;;;19.70;8.48;;;;;;;1.10;90.19;103969.88;5026305;28;20395;-57
2022/01/18 06:08:42;;;;;;;19.75;7.60;;;;;;;1.08;90.30;103972.41;5027481;28;20073;-55
2022/01/18 06:11:08;;;;;;;23.98;7.13;;;;;;;1.09;90.43;103973.31;5028216;28;20053;-56
2022/01/18 06:13:34;;;;;;;66.80;12.13;;;;;;;1.00;90.55;103974.56;5028043;28;20519;-56
2022/01/18 06:15:59;;;;;;;141.75;13.20;;;;;;;0.97;90.90;103979.56;5023773;28;20034;-56
2022/01/18 06:18:25;;;;;;;93.10;11.23;;;;;;;0.98;91.01;103970.09;5017128;28;20033;-55
2022/01/18 06:20:50;;;;;;;84.80;9.77;;;;;;;0.98;91.11;103978.78;5017620;28;20041;-55
2022/01/18 06:23:15;;;;;;;185.00;12.95;;;;;;;0.95;91.08;103978.59;5012582;28;20034;-57
2022/01/18 06:25:41;;;;;;;155.98;14.48;;;;;;;0.94;91.07;103971.63;5017367;28;20022;-57
2022/01/18 06:28:07;;;;;;;111.38;10.70;;;;;;;0.93;90.80;103969.81;5019890;28;20025;-56
2022/01/18 06:30:33;;;;;;;101.57;13.73;;;;;;;0.92;90.88;103975.84;5012926;28;20045;-56
2022/01/18 06:32:58;;;;;;;65.38;7.18;;;;;;;0.93;91.11;103985.41;5017622;28;20139;-55
2022/01/18 06:35:23;;;;;;;106.43;10.43;;;;;;;1.02;91.05;103976.38;5027695;28;20094;-63
2022/01/18 06:37:49;;;;;;;77.07;9.52;;;;;;;1.00;91.14;103974.56;5028177;28;20040;-58
2022/01/18 06:40:14;;;;;;;54.28;9.52;;;;;;;0.98;91.02;103983.97;5028700;28;20460;-54
2022/01/18 06:42:40;;;;;;;62.35;9.02;;;;;;;0.97;91.18;103982.16;5019807;28;20434;-56
2022/01/18 06:45:07;;;;;;;65.95;8.07;;;;;;;0.96;91.30;103976.91;5017616;28;20654;-55
2022/01/18 06:47:32;;;;;;;46.22;5.70;;;;;;;0.98;91.30;103973.59;5015826;28;20033;-57
2022/01/18 06:49:57;;;;;;;37.35;5.18;;;;;;;0.98;91.18;103978.78;5016554;28;20060;-55
2022/01/18 06:52:23;;;;;;;52.60;4.68;;;;;;;0.98;91.28;103981.38;5020366;28;20055;-57
2022/01/18 06:54:48;;;;;;;39.80;4.90;;;;;;;1.02;91.29;103989.34;5016384;28;20472;-56
2022/01/18 06:57:13;;;;;;;57.00;5.85;;;;;;;0.97;91.30;103984.75;5025490;28;20028;-60
2022/01/18 06:59:39;;;;;;;86.47;10.05;;;;;;;1.04;91.35;103985.13;5012626;28;20096;-57
2022/01/18 07:02:04;;;;;;;18.15;4.75;;;;;;;1.08;91.39;103976.72;5009612;28;20042;-56
2022/01/18 07:04:30;;;;;;;39.63;6.07;;;;;;;1.11;91.34;103982.97;5010182;28;20372;-58
2022/01/18 07:06:55;;;;;;;25.17;6.50;;;;;;;1.13;91.38;103986.56;5027911;28;20377;-59
2022/01/18 07:09:23;;;;;;;32.40;6.40;;;;;;;1.16;91.45;103995.31;5020215;28;20458;-58
2022/01/18 07:11:52;;;;;;;31.60;7.10;;;;;;;1.19;91.29;103986.00;5021487;28;20494;-60
2022/01/18 07:14:18;;;;;;;35.60;7.65;;;;;;;1.23;91.56;103987.97;5027643;28;20377;-59
2022/01/18 07:16:43;;;;;;;37.25;7.70;;;;;;;1.26;91.53;103988.13;5028147;28;20017;-58
2022/01/18 07:19:09;;;;;;;18.20;6.47;;;;;;;1.30;91.33;103984.00;5009493;28;20061;-56
2022/01/18 07:21:34;;;;;;;44.05;9.57;;;;;;;1.34;91.39;103985.06;5014486;28;20061;-58
2022/01/18 07:24:05;;;;;;;28.73;7.82;;;;;;;1.39;91.39;103988.81;5018627;28;20029;-56
2022/01/18 07:26:31;;;;;;;37.47;8.40;;;;;;;1.41;91.18;103992.38;5015319;28;20028;-56
2022/01/18 07:28:57;;;;;;;36.92;8.35;;;;;;;1.45;91.22;104001.25;5006257;28;20026;-56
2022/01/18 07:31:22;;;;;;;45.63;8.02;;;;;;;1.51;91.30;103994.69;5007548;28;20517;-56
2022/01/18 07:33:47;;;;;;;23.15;7.15;;;;;;;1.55;91.42;103989.66;5009671;28;20381;-56
2022/01/18 07:36:13;;;;;;;27.25;7.50;;;;;;;1.58;91.41;103992.41;5007380;28;20044;-56
2022/01/18 07:38:38;;;;;;;21.63;7.78;;;;;;;1.64;91.17;103991.06;5026168;28;20548;-58
2022/01/18 07:41:03;;;;;;;26.05;6.75;;;;;;;1.66;91.45;104003.25;5026033;28;20607;-57
2022/01/18 07:43:29;;;;;;;19.38;6.40;;;;;;;1.69;91.24;103990.41;5006121;28;20022;-58
2022/01/18 07:45:54;;;;;;;26.40;6.28;;;;;;;1.78;91.42;104003.94;5013067;28;20037;-57
2022/01/18 07:48:22;;;;;;;30.15;8.27;;;;;;;1.76;91.23;104009.03;5021790;28;20026;-58
2022/01/18 07:50:48;;;;;;;35.17;7.80;;;;;;;1.80;91.40;104011.81;5018795;28;20749;-56
2022/01/18 07:53:13;;;;;;;30.98;7.78;;;;;;;1.82;91.34;104013.66;5016282;28;20123;-58
2022/01/18 07:55:39;;;;;;;30.02;6.53;;;;;;;1.93;91.40;104009.06;5013712;28;20087;-58
2022/01/18 07:58:04;;;;;;;24.63;7.13;;;;;;;1.96;91.43;104008.31;5025831;28;20112;-57
2022/01/18 08:00:29;;;;;;;19.00;7.43;;;;;;;2.00;91.23;104013.78;5007283;28;20036;-55
2022/01/18 08:02:55;;;;;;;32.13;7.78;;;;;;;2.05;91.55;104003.63;5018781;28;20037;-52
2022/01/18 08:05:20;;;;;;;28.55;7.57;;;;;;;2.07;91.42;104012.38;5017484;28;20022;-56
2022/01/18 08:07:46;;;;;;;25.80;6.68;;;;;;;2.12;91.50;104015.22;5013336;28;20111;-55
2022/01/18 08:10:13;;;;;;;19.58;6.57;;;;;;;2.18;91.33;104012.97;5007322;28;20211;-56
2022/01/18 08:12:39;;;;;;;25.60;6.70;;;;;;;2.19;91.43;104019.03;5009585;28;20040;-54
2022/01/18 08:15:14;;;;;;;36.15;6.88;;;;;;;2.21;91.23;104010.50;5015356;28;20288;-54
2022/01/18 08:17:40;;;;;;;17.92;5.20;;;;;;;2.32;91.29;104012.78;5009473;28;20041;-55
2022/01/18 08:20:06;;;;;;;16.85;5.65;;;;;;;2.34;91.21;104001.63;5010413;28;20117;-56
2022/01/18 08:22:32;;;;;;;11.25;5.35;;;;;;;2.37;90.98;104004.41;4988546;28;20034;-54
2022/01/18 08:24:57;;;;;;;29.42;7.32;;;;;;;2.40;90.91;104001.03;4999924;28;20021;-56
2022/01/18 08:27:23;;;;;;;25.10;6.35;;;;;;;2.45;91.07;104011.69;4995152;28;20032;-56
2022/01/18 08:29:48;;;;;;;30.55;6.47;;;;;;;2.47;91.03;104018.75;5001819;28;20022;-53
2022/01/18 08:32:13;;;;;;;16.52;4.32;;;;;;;2.53;90.93;104020.81;4992041;28;20037;-54
2022/01/18 08:34:39;;;;;;;14.18;4.47;;;;;;;2.60;90.81;104014.19;4991733;28;20029;-54
2022/01/18 08:37:04;;;;;;;8.60;3.63;;;;;;;2.68;90.79;104012.00;4995241;28;20054;-54
2022/01/18 08:39:30;;;;;;;18.80;5.72;;;;;;;2.61;90.17;104013.38;4998882;28;20467;-55
2022/01/18 08:41:55;;;;;;;49.78;6.85;;;;;;;2.58;90.62;104013.22;5000838;28;20068;-55
2022/01/18 08:44:20;;;;;;;18.73;5.22;;;;;;;2.62;90.76;104017.78;5003411;28;20048;-56
2022/01/18 08:46:46;;;;;;;10.60;4.07;;;;;;;2.68;90.53;104022.41;5000290;28;20333;-57
2022/01/18 08:49:11;;;;;;;13.13;4.30;;;;;;;2.77;90.75;104028.09;4997602;28;20402;-57
2022/01/18 08:51:36;;;;;;;13.57;5.57;;;;;;;2.85;90.63;104031.06;4985413;28;20059;-56
2022/01/18 08:54:03;;;;;;;11.05;3.72;;;;;;;2.89;90.53;104023.47;4999094;28;20069;-55
2022/01/18 08:56:29;;;;;;;24.77;4.38;;;;;;;2.92;90.30;104033.13;5001569;28;20033;-56
2022/01/18 08:58:55;;;;;;;13.73;4.00;;;;;;;3.03;90.04;104033.69;5001783;28;20067;-55
2022/01/18 09:01:21;;;;;;;20.48;4.13;;;;;;;3.08;90.27;104026.09;5001903;28;20502;-54
2022/01/18 09:03:46;;;;;;;18.70;4.75;;;;;;;3.09;89.94;104031.38;5002351;28;20029;-54
2022/01/18 09:06:13;;;;;;;17.88;4.97;;;;;;;3.18;89.99;104035.25;5001155;28;20491;-55
2022/01/18 09:08:41;;;;;;;29.05;5.10;;;;;;;3.09;89.93;104035.69;5000861;28;20033;-55
2022/01/18 09:11:07;;;;;;;14.95;4.53;;;;;;;3.28;90.12;104033.16;4996783;28;20384;-57
2022/01/18 09:13:34;;;;;;;10.70;4.57;;;;;;;3.31;90.11;104032.41;5002134;28;20024;-55
2022/01/18 09:16:00;;;;;;;19.15;5.53;;;;;;;3.32;90.06;104030.72;5001557;28;20029;-55
2022/01/18 09:18:25;;;;;;;9.52;4.25;;;;;;;3.39;90.30;104030.19;5001548;28;20079;-55
2022/01/18 09:20:51;;;;;;;10.38;5.50;;;;;;;3.37;90.19;104031.84;5001951;28;20293;-51
2022/01/18 09:23:16;;;;;;;22.52;5.35;;;;;;;3.43;90.39;104031.25;4999324;28;20116;-57
2022/01/18 09:25:42;;;;;;;22.85;5.43;;;;;;;3.52;90.49;104035.16;5003954;28;20100;-55
2022/01/18 09:28:08;;;;;;;16.95;5.95;;;;;;;3.52;90.17;104032.56;4986479;28;20507;-56
2022/01/18 09:30:34;;;;;;;20.88;4.63;;;;;;;3.60;90.24;104032.03;4988960;28;20025;-54
2022/01/18 09:33:00;;;;;;;15.27;5.10;;;;;;;3.66;90.43;104035.81;5003578;28;20029;-55
2022/01/18 09:35:26;;;;;;;10.20;5.47;;;;;;;3.71;90.35;104033.44;5004553;28;20078;-55
2022/01/18 09:37:52;;;;;;;40.35;6.45;;;;;;;3.78;90.03;104024.16;5004922;28;20006;-56
2022/01/18 09:40:19;;;;;;;11.38;5.38;;;;;;;3.85;89.78;104027.97;4997943;28;20123;-55
2022/01/18 09:42:52;;;;;;;14.45;5.25;;;;;;;3.93;90.08;104023.97;5005576;28;20194;-56
2022/01/18 09:45:18;;;;;;;15.68;5.70;;;;;;;3.95;89.26;104038.00;5005212;28;20322;-56
2022/01/18 09:47:46;;;;;;;11.88;6.10;;;;;;;4.02;89.18;104029.63;5005407;28;20033;-55
2022/01/18 09:50:15;;;;;;;14.18;5.28;;;;;;;4.07;89.17;104036.75;5005059;28;20025;-53
2022/01/18 09:52:41;;;;;;;28.33;7.55;;;;;;;4.16;89.08;104032.81;5005543;28;20064;-55
2022/01/18 09:55:08;;;;;;;16.95;8.20;;;;;;;4.17;88.87;104038.94;5004055;28;20053;-53
2022/01/18 09:57:34;;;;;;;26.40;8.88;;;;;;;4.14;89.04;104041.41;5005323;28;20490;-55
2022/01/18 10:00:00;;;;;;;43.70;9.02;;;;;;;4.15;88.08;104044.09;5005288;28;20018;-52
2022/01/18 10:02:26;;;;;;;17.17;7.45;;;;;;;4.21;88.38;104043.47;4987830;28;20395;-54
2022/01/18 10:04:53;;;;;;;26.55;7.53;;;;;;;4.27;88.44;104046.38;5003486;28;20100;-55
2022/01/18 10:07:34;;;;;;;16.92;7.88;;;;;;;4.19;87.80;104050.38;5005467;28;20581;-55
2022/01/18 10:10:02;;;;;;;38.78;8.45;;;;;;;4.14;88.56;104049.25;5003840;28;20033;-54
2022/01/18 10:12:27;;;;;;;87.32;10.65;;;;;;;4.13;88.63;104040.53;5005203;28;20145;-56
2022/01/18 10:14:58;;;;;;;35.58;9.95;;;;;;;4.27;89.14;104033.31;5004866;28;20025;-53
2022/01/18 10:17:35;;;;;;;33.33;9.77;;;;;;;4.38;88.80;104035.50;5004228;28;20091;-55
2022/01/18 10:20:14;;;;;;;39.05;10.95;;;;;;;4.35;88.64;104030.16;5004190;28;20020;-56
2022/01/18 10:22:42;;;;;;;48.97;10.18;;;;;;;4.39;88.77;104027.75;5004034;28;20523;-55
2022/01/18 10:25:18;;;;;;;46.40;11.57;;;;;;;4.49;88.44;104031.63;5003716;28;20618;-54
2022/01/18 10:27:47;;;;;;;37.25;12.07;;;;;;;4.57;88.54;104034.59;5005179;28;20068;-54
2022/01/18 10:30:19;;;;;;;91.45;14.05;;;;;;;4.53;88.24;104036.19;5004596;28;20026;-55
2022/01/18 10:33:13;;;;;;;32.72;13.65;;;;;;;4.57;88.70;104037.19;5005232;28;20017;-54
2022/01/18 10:36:04;;;;;;;54.33;12.85;;;;;;;4.56;88.36;104032.81;5003307;28;20103;-54
2022/01/18 10:38:29;;;;;;;68.72;12.35;;;;;;;4.65;88.98;104037.53;5004681;28;20033;-54
2022/01/18 10:40:55;;;;;;;43.53;10.85;;;;;;;4.69;88.51;104028.97;5004041;28;20590;-53
2022/01/18 10:43:28;;;;;;;53.88;11.85;;;;;;;4.76;88.15;104031.03;5004212;28;20694;-54
2022/01/18 10:46:14;;;;;;;52.38;11.32;;;;;;;4.89;88.32;104034.16;5003736;28;20029;-52
2022/01/18 10:48:47;;;;;;;50.88;10.05;;;;;;;4.92;87.21;104026.44;5003751;28;20029;-56
2022/01/18 10:51:25;;;;;;;47.25;10.80;;;;;;;4.87;88.00;104030.59;5004988;28;20443;-56
2022/01/18 10:53:59;;;;;;;48.30;9.85;;;;;;;4.93;87.53;104033.47;5003932;28;20332;-55
2022/01/18 10:56:24;;;;;;;25.20;10.10;;;;;;;4.92;87.67;104029.97;5003096;28;20395;-55
2022/01/18 10:58:55;;;;;;;28.13;9.98;;;;;;;4.96;87.39;104028.34;5005123;28;20022;-55
2022/01/18 11:01:23;;;;;;;57.03;13.23;;;;;;;4.99;88.05;104032.81;5004866;28;20069;-54
2022/01/18 11:04:13;;;;;;;43.65;11.50;;;;;;;5.09;88.07;104027.13;5003799;28;20029;-54
2022/01/18 11:06:42;;;;;;;35.05;11.68;;;;;;;5.14;87.75;104016.88;5003812;28;20507;-52
2022/01/18 11:09:12;;;;;;;80.28;11.77;;;;;;;5.13;87.41;104021.22;5004809;28;20022;-53
2022/01/18 11:11:46;;;;;;;45.42;11.15;;;;;;;5.20;87.09;104022.34;5004785;28;20018;-57
2022/01/18 11:14:16;;;;;;;22.15;9.07;;;;;;;5.22;87.23;104010.22;5005966;28;20025;-56
2022/01/18 11:16:44;;;;;;;28.13;9.00;;;;;;;5.25;87.71;104014.69;4998337;28;20129;-58
2022/01/18 11:19:28;;;;;;;36.58;10.93;;;;;;;5.21;87.57;104012.78;4993298;28;20543;-56
2022/01/18 11:21:57;;;;;;;72.43;14.43;;;;;;;5.21;87.48;104003.19;4999799;28;20098;-58
2022/01/18 11:24:23;;;;;;;34.67;10.77;;;;;;;5.18;87.64;104010.94;4999670;28;20029;-57
2022/01/18 11:26:49;;;;;;;44.72;11.57;;;;;;;5.21;87.71;104015.41;5003899;28;20259;-56
2022/01/18 11:29:18;;;;;;;41.53;12.25;;;;;;;5.26;87.08;104008.63;5003114;28;20475;-59
2022/01/18 11:31:48;;;;;;;86.00;15.05;;;;;;;5.20;86.35;104008.41;5003962;28;20032;-55
2022/01/18 11:34:28;;;;;;;33.28;11.38;;;;;;;5.14;87.15;104007.31;5004435;28;20034;-55
2022/01/18 11:36:59;;;;;;;16.52;7.75;;;;;;;5.22;87.12;104006.72;4987729;28;20037;-55
2022/01/18 11:39:27;;;;;;;34.05;10.32;;;;;;;5.26;86.61;104000.78;4987523;28;20029;-57
2022/01/18 11:42:05;;;;;;;25.77;9.45;;;;;;;5.38;86.55;104001.25;4986068;28;20146;-54
2022/01/18 11:44:30;;;;;;;24.35;10.13;;;;;;;5.39;86.79;104008.25;4999661;28;20053;-54
2022/01/18 11:46:57;;;;;;;18.88;6.65;;;;;;;5.38;86.75;103997.75;5000970;28;20495;-53
2022/01/18 11:49:25;;;;;;;26.83;6.90;;;;;;;5.47;86.48;104003.34;5001352;28;20105;-55
2022/01/18 11:52:11;;;;;;;25.58;9.85;;;;;;;5.51;86.04;103997.38;4974890;28;20661;-55
2022/01/18 11:57:15;;;;;;;29.60;8.68;;;;;;;5.56;86.63;104000.19;5004469;28;20022;-55
2022/01/18 11:59:41;;;;;;;31.90;10.50;;;;;;;5.55;86.63;103993.19;5002808;28;20708;-54
2022/01/18 12:02:07;;;;;;;30.58;11.15;;;;;;;5.65;86.41;103990.09;5003094;28;20079;-56
2022/01/18 12:07:07;;;;;;;22.88;7.97;;;;;;;5.60;86.31;103996.84;5003623;28;20089;-57
2022/01/18 12:09:43;;;;;;;27.08;8.80;;;;;;;5.68;85.80;103994.53;5003641;28;20037;-56
2022/01/18 12:12:40;;;;;;;26.40;8.40;;;;;;;5.61;85.45;103975.09;4985267;28;20115;-57
2022/01/18 12:15:23;;;;;;;20.67;8.52;;;;;;;5.57;85.69;103981.94;5002377;28;20029;-55
2022/01/18 12:17:51;;;;;;;30.42;9.48;;;;;;;5.61;85.53;103982.06;4984590;28;20045;-55
2022/01/18 12:20:35;;;;;;;33.35;10.70;;;;;;;5.55;85.64;103978.38;4988345;28;20037;-55
2022/01/18 12:23:03;;;;;;;28.88;9.55;;;;;;;5.56;86.05;103979.25;4999933;28;20037;-59
2022/01/18 12:25:30;;;;;;;33.20;11.57;;;;;;;5.54;85.71;103976.59;4976103;28;20029;-55
2022/01/18 12:28:01;;;;;;;39.88;11.63;;;;;;;5.63;85.85;103985.63;4996811;28;20451;-55
2022/01/18 12:30:53;;;;;;;22.67;9.48;;;;;;;5.65;85.49;103978.72;5000635;28;20037;-54
2022/01/18 12:33:19;;;;;;;33.38;10.45;;;;;;;5.59;85.10;103978.47;5004928;28;20052;-60
2022/01/18 12:35:45;;;;;;;25.63;8.93;;;;;;;5.61;85.22;103977.72;5004194;28;20156;-56
2022/01/18 12:38:23;;;;;;;37.63;9.68;;;;;;;5.63;85.43;103980.41;5003087;28;20030;-53
2022/01/18 12:40:49;;;;;;;28.88;9.77;;;;;;;5.64;85.39;103977.84;4995142;28;20041;-58